Terminal Aerodrome Forecast
Issued by NWS North Platte, NE

Home | Current Version | Previous Version | Graphics & Text | Print | Product List | Glossary On
Versions: 1 2 3 4 5 6 7 8 9 10 11 12 13 14 15 16 17 18 19 20 21 22 23
000
FTUS43 KLBF 101500 AAA
TAFVTN
TAF AMD
KVTN 101533Z 1016/1112 18013G20KT P6SM BKN020
     FM102300 14013KT P6SM BKN080 OVC150
      TEMPO 1023/1103 5SM TSRA BKN070CB
     FM110300 16009KT P6SM -TSRA BKN080CB
     FM110800 20005KT P6SM OVC120=

USA.gov is the U.S. government's official web portal to all federal, state and local government web resources and services.